createdAt,value
2023-02-15T00:01:27.842Z,26.08
2023-02-15T00:03:54.887Z,26.48
2023-02-15T00:06:22.133Z,26.15
2023-02-15T00:08:49.248Z,29.10
2023-02-15T00:11:18.177Z,29.45
2023-02-15T00:13:45.168Z,27.35
2023-02-15T00:16:14.054Z,30.63
2023-02-15T00:22:19.527Z,28.60
2023-02-15T00:24:46.578Z,27.00
2023-02-15T00:27:13.653Z,21.73
2023-02-15T00:29:40.720Z,24.15
2023-02-15T00:32:07.862Z,23.75
2023-02-15T00:34:35.008Z,30.10
2023-02-15T00:37:02.078Z,19.75
2023-02-15T00:39:30.146Z,19.33
2023-02-15T00:41:57.180Z,22.42
2023-02-15T00:44:24.273Z,17.67
2023-02-15T00:46:51.320Z,17.52
2023-02-15T00:49:18.315Z,14.00
2023-02-15T00:51:45.310Z,15.98
2023-02-15T00:54:12.313Z,17.58
2023-02-15T00:56:39.355Z,15.85
2023-02-15T00:59:06.605Z,13.32
2023-02-15T01:01:33.651Z,16.00
2023-02-15T01:04:00.759Z,16.50
2023-02-15T01:06:27.853Z,15.85
2023-02-15T01:08:55.100Z,14.65
2023-02-15T01:11:23.894Z,14.88
2023-02-15T01:13:57.905Z,15.48
2023-02-15T01:16:26.793Z,13.45
2023-02-15T01:18:55.803Z,13.70
2023-02-15T01:21:25.288Z,12.00
2023-02-15T01:23:52.382Z,10.68
2023-02-15T01:26:19.692Z,9.07
2023-02-15T01:28:47.252Z,9.90
2023-02-15T01:31:19.324Z,9.35
2023-02-15T01:33:48.200Z,11.05
2023-02-15T01:36:18.497Z,12.60
2023-02-15T01:38:45.882Z,12.82
2023-02-15T01:41:23.375Z,10.80
2023-02-15T01:43:53.699Z,10.18
2023-02-15T01:46:28.012Z,14.07
2023-02-15T01:49:03.867Z,10.40
2023-02-15T01:51:34.388Z,12.18
2023-02-15T01:54:16.750Z,9.25
2023-02-15T01:56:43.993Z,8.20
2023-02-15T01:59:17.863Z,9.75
2023-02-15T02:01:45.490Z,9.77
2023-02-15T02:04:20.850Z,8.02
2023-02-15T02:06:49.174Z,8.73
2023-02-15T02:09:16.378Z,7.13
2023-02-15T02:11:47.404Z,7.60
2023-02-15T02:14:14.549Z,11.40
2023-02-15T02:16:58.717Z,8.27
2023-02-15T02:19:34.361Z,9.20
2023-02-15T02:22:23.015Z,9.85
2023-02-15T02:25:10.846Z,11.57
2023-02-15T02:27:59.298Z,13.73
2023-02-15T02:30:50.335Z,9.93
2023-02-15T02:33:36.447Z,9.93
2023-02-15T02:36:24.996Z,9.65
2023-02-15T02:39:04.182Z,7.10
2023-02-15T02:41:43.105Z,7.18
2023-02-15T02:44:24.286Z,8.10
2023-02-15T02:47:16.113Z,6.13
2023-02-15T02:49:44.798Z,10.05
2023-02-15T02:52:45.840Z,8.00
2023-02-15T02:55:37.750Z,8.07
2023-02-15T02:58:17.928Z,6.80
2023-02-15T03:00:55.820Z,6.95
2023-02-15T03:03:46.422Z,7.28
2023-02-15T03:06:19.304Z,5.75
2023-02-15T03:08:55.261Z,10.18
2023-02-15T03:11:22.416Z,12.50
2023-02-15T03:13:50.588Z,7.75
2023-02-15T03:16:27.855Z,8.75
2023-02-15T03:19:12.129Z,8.35
2023-02-15T03:21:50.683Z,7.22
2023-02-15T03:24:23.166Z,8.20
2023-02-15T03:26:55.591Z,7.25
2023-02-15T03:29:26.899Z,7.88
2023-02-15T03:32:02.921Z,7.65
2023-02-15T03:34:30.661Z,8.75
2023-02-15T03:37:09.421Z,11.13
2023-02-15T03:40:23.061Z,10.32
2023-02-15T03:43:18.221Z,7.97
2023-02-15T03:45:56.017Z,7.47
2023-02-15T03:48:37.604Z,11.90
2023-02-15T03:51:32.095Z,8.18
2023-02-15T03:54:00.575Z,9.02
2023-02-15T03:56:27.825Z,9.45
2023-02-15T03:59:13.203Z,6.05
2023-02-15T04:01:58.372Z,6.68
2023-02-15T04:04:36.679Z,6.68
2023-02-15T04:07:06.244Z,5.85
2023-02-15T04:09:51.663Z,5.43
2023-02-15T04:12:19.117Z,14.98
2023-02-15T04:15:05.472Z,11.45
2023-02-15T04:17:32.563Z,10.60
2023-02-15T04:20:18.248Z,14.23
2023-02-15T04:23:04.645Z,11.23
2023-02-15T04:25:31.690Z,8.57
2023-02-15T04:27:58.788Z,8.75
2023-02-15T04:30:27.609Z,9.95
2023-02-15T04:32:56.209Z,8.82
2023-02-15T04:35:23.564Z,8.45
2023-02-15T04:37:50.510Z,8.88
2023-02-15T04:40:19.607Z,8.05
2023-02-15T04:42:50.285Z,7.07
2023-02-15T04:45:18.254Z,8.30
2023-02-15T04:47:45.447Z,9.02
2023-02-15T04:50:12.616Z,6.88
2023-02-15T04:52:40.038Z,7.68
2023-02-15T04:55:07.819Z,7.50
2023-02-15T04:57:34.916Z,6.38
2023-02-15T05:00:02.115Z,6.97
2023-02-15T05:02:29.574Z,3.83
2023-02-15T05:04:56.720Z,7.32
2023-02-15T05:07:25.199Z,6.72
2023-02-15T05:09:52.144Z,4.78
2023-02-15T05:12:19.142Z,5.72
2023-02-15T05:14:46.136Z,5.78
2023-02-15T05:17:13.182Z,6.03
2023-02-15T05:19:40.113Z,5.00
2023-02-15T05:22:07.172Z,4.88
2023-02-15T05:24:52.753Z,7.25
2023-02-15T05:27:38.898Z,6.85
2023-02-15T05:30:07.121Z,7.78
2023-02-15T05:32:34.208Z,5.30
2023-02-15T05:35:01.269Z,6.57
2023-02-15T05:37:28.316Z,7.25
2023-02-15T05:39:55.467Z,5.05
2023-02-15T05:42:22.471Z,7.50
2023-02-15T05:44:49.558Z,12.70
2023-02-15T05:47:16.559Z,6.82
2023-02-15T05:49:43.603Z,3.47
2023-02-15T05:52:10.810Z,4.78
2023-02-15T05:54:37.849Z,6.72
2023-02-15T05:57:04.847Z,5.20
2023-02-15T05:59:31.895Z,7.78
2023-02-15T06:01:58.993Z,5.22
2023-02-15T06:04:26.200Z,7.03
2023-02-15T06:06:53.183Z,4.00
2023-02-15T06:09:20.954Z,6.07
2023-02-15T06:11:48.404Z,4.85
2023-02-15T06:14:15.450Z,5.22
2023-02-15T06:16:42.600Z,7.25
2023-02-15T06:19:09.608Z,4.57
2023-02-15T06:21:36.643Z,6.18
2023-02-15T06:24:03.739Z,4.20
2023-02-15T06:26:31.762Z,6.88
2023-02-15T06:28:58.857Z,5.40
2023-02-15T06:31:25.893Z,5.05
2023-02-15T06:33:52.957Z,5.70
2023-02-15T06:36:19.906Z,6.13
2023-02-15T06:38:46.990Z,9.63
2023-02-15T06:41:14.051Z,9.68
2023-02-15T06:43:41.242Z,17.00
2023-02-15T06:46:08.382Z,14.48
2023-02-15T06:48:35.438Z,20.58
2023-02-15T06:51:04.170Z,22.65
2023-02-15T06:53:31.577Z,18.13
2023-02-15T06:56:07.747Z,14.55
2023-02-15T06:58:34.920Z,16.60
2023-02-15T07:01:01.982Z,14.57
2023-02-15T07:03:29.028Z,10.20
2023-02-15T07:06:01.189Z,7.57
2023-02-15T07:08:28.858Z,11.27
2023-02-15T07:11:16.992Z,15.23
2023-02-15T07:13:44.092Z,22.50
2023-02-15T07:16:12.063Z,33.75
2023-02-15T07:18:40.290Z,29.55
2023-02-15T07:21:09.171Z,13.30
2023-02-15T07:23:37.443Z,18.25
2023-02-15T07:26:05.259Z,29.67
2023-02-15T07:28:32.870Z,13.00
2023-02-15T07:31:00.139Z,14.27
2023-02-15T07:33:28.295Z,36.63
2023-02-15T07:35:59.036Z,21.40
2023-02-15T07:38:27.504Z,10.93
2023-02-15T07:41:00.338Z,15.70
2023-02-15T07:43:28.106Z,13.55
2023-02-15T07:45:55.200Z,14.70
2023-02-15T07:48:24.834Z,13.50
2023-02-15T07:50:52.465Z,7.18
2023-02-15T07:53:19.582Z,6.30
2023-02-15T07:55:46.540Z,8.85
2023-02-15T07:58:13.412Z,12.20
2023-02-15T08:01:00.500Z,14.25
2023-02-15T08:03:28.075Z,15.10
2023-02-15T08:06:00.684Z,18.98
2023-02-15T08:08:31.173Z,16.33
2023-02-15T08:11:26.435Z,15.00
2023-02-15T08:14:00.570Z,19.85
2023-02-15T08:16:50.583Z,12.18
2023-02-15T08:19:28.877Z,15.07
2023-02-15T08:22:01.223Z,24.20
2023-02-15T08:24:30.673Z,28.77
2023-02-15T08:26:58.517Z,32.50
2023-02-15T08:29:28.334Z,28.75
2023-02-15T08:32:03.194Z,19.20
2023-02-15T08:34:37.029Z,23.95
2023-02-15T08:37:05.449Z,16.80
2023-02-15T08:39:32.374Z,18.52
2023-02-15T08:41:59.306Z,22.60
2023-02-15T08:44:26.329Z,20.58
2023-02-15T08:46:53.293Z,17.70
2023-02-15T08:49:21.995Z,19.90
2023-02-15T08:51:50.023Z,19.10
2023-02-15T08:54:20.163Z,27.92
2023-02-15T08:56:47.443Z,22.50
2023-02-15T08:59:17.535Z,26.92
2023-02-15T09:01:45.416Z,26.88
2023-02-15T09:04:14.145Z,23.25
2023-02-15T09:06:42.698Z,20.83
2023-02-15T09:09:10.221Z,24.75
2023-02-15T09:11:42.198Z,23.92
2023-02-15T09:14:14.709Z,25.77
2023-02-15T09:16:45.841Z,23.20
2023-02-15T09:19:13.479Z,25.40
2023-02-15T09:21:40.381Z,26.95
2023-02-15T09:24:09.938Z,26.58
2023-02-15T09:26:41.496Z,32.58
2023-02-15T09:29:09.734Z,35.03
2023-02-15T09:31:47.346Z,29.00
2023-02-15T09:34:18.594Z,30.10
2023-02-15T09:36:46.576Z,29.65
2023-02-15T09:39:18.867Z,35.00
2023-02-15T09:42:28.835Z,38.17
2023-02-15T09:45:26.349Z,44.65
2023-02-15T09:48:12.257Z,33.03
2023-02-15T09:53:50.248Z,38.08
2023-02-15T09:56:26.138Z,44.00
2023-02-15T09:58:53.949Z,41.20
2023-02-15T10:01:58.291Z,49.47
2023-02-15T10:04:31.111Z,36.08
2023-02-15T10:07:32.301Z,43.63
2023-02-15T10:10:26.442Z,35.25
2023-02-15T10:13:23.798Z,39.22
2023-02-15T10:16:04.063Z,37.28
2023-02-15T10:18:36.833Z,42.85
2023-02-15T10:21:16.856Z,37.47
2023-02-15T10:24:09.567Z,46.08
2023-02-15T10:26:45.403Z,48.22
2023-02-15T10:29:31.454Z,46.63
2023-02-15T10:32:13.079Z,51.38
2023-02-15T10:34:53.288Z,53.92
2023-02-15T10:37:37.966Z,52.83
2023-02-15T10:40:28.871Z,61.80
2023-02-15T10:43:14.579Z,48.72
2023-02-15T10:45:53.362Z,49.78
2023-02-15T10:48:34.298Z,53.05
2023-02-15T10:51:05.300Z,49.92
2023-02-15T10:53:38.060Z,51.63
2023-02-15T10:56:07.831Z,50.92
2023-02-15T10:59:06.637Z,48.88
2023-02-15T11:01:42.654Z,42.67
2023-02-15T11:04:22.162Z,52.25
2023-02-15T11:06:56.774Z,53.92
2023-02-15T11:09:30.832Z,47.03
2023-02-15T11:12:00.753Z,52.05
2023-02-15T11:14:45.075Z,53.70
2023-02-15T11:17:16.938Z,54.53
2023-02-15T11:19:56.238Z,52.28
2023-02-15T11:22:23.621Z,49.22
2023-02-15T11:24:50.870Z,59.30
2023-02-15T11:27:42.280Z,56.28
2023-02-15T11:30:15.642Z,58.88
2023-02-15T11:32:47.968Z,56.50
2023-02-15T11:35:14.827Z,53.97
2023-02-15T11:37:49.052Z,49.58
2023-02-15T11:40:50.046Z,54.42
2023-02-15T11:43:27.226Z,56.35
2023-02-15T11:45:55.728Z,53.13
2023-02-15T11:48:23.129Z,55.17
2023-02-15T11:50:50.028Z,59.42
2023-02-15T11:53:25.851Z,60.95
2023-02-15T11:55:53.145Z,55.05
2023-02-15T11:58:42.495Z,54.75
2023-02-15T12:01:30.914Z,50.72
2023-02-15T12:04:21.827Z,55.70
2023-02-15T12:07:02.327Z,54.03
2023-02-15T12:09:39.893Z,60.25
2023-02-15T12:12:25.452Z,62.42
2023-02-15T12:14:55.472Z,55.67
2023-02-15T12:17:24.967Z,57.80
2023-02-15T12:19:57.494Z,59.33
2023-02-15T12:22:31.296Z,55.47
2023-02-15T12:25:01.327Z,58.72
2023-02-15T12:27:31.433Z,58.78
2023-02-15T12:30:03.389Z,67.45
2023-02-15T12:32:35.569Z,70.57
2023-02-15T12:35:17.741Z,64.38
2023-02-15T12:37:56.536Z,65.82
2023-02-15T12:40:28.796Z,60.35
2023-02-15T12:42:57.095Z,64.25
2023-02-15T12:45:32.679Z,61.13
2023-02-15T12:48:17.905Z,69.00
2023-02-15T12:50:54.678Z,69.45
2023-02-15T12:53:21.795Z,69.47
2023-02-15T12:56:06.666Z,76.18
2023-02-15T12:58:43.113Z,71.10
2023-02-15T13:01:10.182Z,77.00
2023-02-15T13:03:41.374Z,76.63
2023-02-15T13:06:09.393Z,69.65
2023-02-15T13:08:45.666Z,86.13
2023-02-15T13:11:13.567Z,76.72
2023-02-15T13:13:53.119Z,76.90
2023-02-15T13:16:32.685Z,77.88
2023-02-15T13:19:07.403Z,84.57
2023-02-15T13:21:39.722Z,81.05
2023-02-15T13:24:18.564Z,89.57
2023-02-15T13:26:48.251Z,85.70
2023-02-15T13:29:24.058Z,90.32
2023-02-15T13:31:55.548Z,94.18
2023-02-15T13:34:34.620Z,87.45
2023-02-15T13:37:17.614Z,92.70
2023-02-15T13:40:11.589Z,91.47
2023-02-15T13:43:04.825Z,92.40
2023-02-15T13:46:00.989Z,94.25
2023-02-15T13:51:36.011Z,86.07
2023-02-15T13:54:34.443Z,81.68
2023-02-15T13:57:24.684Z,86.85
2023-02-15T14:00:09.699Z,83.68
2023-02-15T14:03:14.242Z,74.90
2023-02-15T14:06:16.650Z,85.68
2023-02-15T14:09:00.213Z,86.00
2023-02-15T14:11:39.413Z,81.97
2023-02-15T14:14:31.853Z,88.13
2023-02-15T14:17:07.314Z,87.63
2023-02-15T14:19:57.006Z,79.75
2023-02-15T14:22:42.142Z,85.07
2023-02-15T14:25:34.738Z,91.80
2023-02-15T14:28:24.156Z,92.35
2023-02-15T14:30:52.457Z,81.35
2023-02-15T14:33:48.660Z,86.75
2023-02-15T14:36:20.741Z,82.43
2023-02-15T14:39:34.923Z,78.47
2023-02-15T14:42:11.293Z,77.30
2023-02-15T14:44:46.689Z,79.22
2023-02-15T14:50:38.426Z,75.10
2023-02-15T14:53:26.323Z,78.22
2023-02-15T14:56:14.872Z,75.28
2023-02-15T14:58:53.775Z,82.40
2023-02-15T15:01:33.777Z,72.00
2023-02-15T15:04:09.549Z,74.00
2023-02-15T15:06:42.839Z,87.65
2023-02-15T15:09:23.468Z,84.68
2023-02-15T15:11:52.244Z,76.15
2023-02-15T15:14:34.671Z,82.93
2023-02-15T15:17:04.976Z,73.25
2023-02-15T15:19:53.997Z,71.15
2023-02-15T15:22:31.883Z,85.57
2023-02-15T15:25:34.921Z,79.00
2023-02-15T15:28:04.225Z,65.30
2023-02-15T15:30:31.262Z,78.85
2023-02-15T15:32:58.263Z,67.53
2023-02-15T15:35:53.824Z,83.07
2023-02-15T15:38:39.323Z,104.30
2023-02-15T15:41:40.243Z,94.75
2023-02-15T15:44:27.262Z,80.47
2023-02-15T15:47:27.548Z,79.03
2023-02-15T15:50:01.192Z,84.18
2023-02-15T15:52:30.076Z,79.57
2023-02-15T15:55:04.599Z,90.65
2023-02-15T15:57:39.333Z,91.43
2023-02-15T16:00:30.334Z,98.20
2023-02-15T16:02:57.386Z,77.72
2023-02-15T16:05:24.327Z,80.45
2023-02-15T16:07:51.373Z,84.63
2023-02-15T16:10:27.785Z,77.43
2023-02-15T16:12:55.960Z,83.68
2023-02-15T16:15:34.441Z,72.47
2023-02-15T16:18:06.847Z,79.50
2023-02-15T16:20:38.295Z,89.88
2023-02-15T16:23:22.597Z,83.40
2023-02-15T16:26:14.121Z,73.57
2023-02-15T16:28:41.372Z,80.90
2023-02-15T16:31:17.203Z,72.63
2023-02-15T16:33:46.008Z,73.65
2023-02-15T16:36:40.806Z,77.80
2023-02-15T16:39:11.333Z,75.93
2023-02-15T16:41:39.002Z,69.75
2023-02-15T16:44:17.359Z,67.63
2023-02-15T16:46:49.231Z,68.45
2023-02-15T16:49:35.872Z,72.28
2023-02-15T16:52:09.726Z,69.70
2023-02-15T16:54:37.363Z,78.45
2023-02-15T16:57:04.536Z,78.53
2023-02-15T16:59:46.192Z,74.30
2023-02-15T17:02:40.183Z,83.38
2023-02-15T17:05:25.230Z,91.85
2023-02-15T17:08:06.912Z,90.85
2023-02-15T17:10:37.397Z,88.68
2023-02-15T17:13:16.063Z,68.95
2023-02-15T17:15:45.466Z,73.78
2023-02-15T17:18:19.525Z,79.15
2023-02-15T17:20:48.820Z,82.85
2023-02-15T17:23:32.264Z,87.50
2023-02-15T17:26:00.603Z,89.20
2023-02-15T17:28:31.847Z,93.50
2023-02-15T17:30:59.933Z,96.70
2023-02-15T17:33:38.111Z,91.57
2023-02-15T17:36:06.494Z,95.45
2023-02-15T17:38:33.935Z,103.80
2023-02-15T17:41:01.405Z,85.07
2023-02-15T17:43:28.681Z,101.97
2023-02-15T17:45:56.605Z,122.57
2023-02-15T17:48:35.640Z,122.88
2023-02-15T17:51:05.910Z,105.20
2023-02-15T17:53:33.985Z,106.95
2023-02-15T17:56:11.059Z,130.38
2023-02-15T17:58:39.676Z,123.50
2023-02-15T18:01:37.192Z,115.75
2023-02-15T18:04:23.850Z,106.72
2023-02-15T18:07:09.865Z,115.05
